Time;durP1;ratioP1;P1;durP2;ratioP2;P2;SDS_P1;SDS_P2;PMS_P1;PMS_P2;Temp;Humidity;BMP_temperature;BMP_pressure;BME280_temperature;BME280_humidity;BME280_pressure;Samples;Min_cycle;Max_cycle;Signal;HPM_P1;HPM_P2
2022/10/04 00:00:40;;;;;;;0.00;0.00;;;;;;;7.80;100.00;98574.02;1771839;79;21160;-49
2022/10/04 00:03:11;;;;;;;0.00;0.00;;;;;;;7.80;100.00;98567.33;1751099;80;21696;-49
2022/10/04 00:05:37;;;;;;;0.00;0.00;;;;;;;7.82;100.00;98568.11;1772123;80;21041;-50
2022/10/04 00:08:27;;;;;;;1.27;0.00;;;;;;;7.84;100.00;98568.39;1770832;78;23377;-50
2022/10/04 00:11:21;;;;;;;0.00;0.00;;;;;;;7.84;100.00;98564.84;1769735;79;21048;-50
2022/10/04 00:13:53;;;;;;;0.00;0.00;;;;;;;7.86;100.00;98562.95;1772963;79;21064;-50
2022/10/04 00:16:30;;;;;;;0.42;0.00;;;;;;;7.87;100.00;98560.67;1768170;80;21044;-49
2022/10/04 00:19:04;;;;;;;0.00;0.00;;;;;;;7.88;100.00;98554.36;1745329;79;21183;-51
2022/10/04 00:21:57;;;;;;;0.00;0.00;;;;;;;7.88;100.00;98557.91;1768869;80;21813;-50
2022/10/04 00:24:28;;;;;;;0.23;0.10;;;;;;;7.90;100.00;98553.34;1773008;78;21056;-50
2022/10/04 00:27:20;;;;;;;0.10;0.08;;;;;;;7.90;100.00;98551.13;1771926;79;21057;-51
2022/10/04 00:30:07;;;;;;;0.17;0.08;;;;;;;7.90;100.00;98557.83;1768135;80;21374;-51
2022/10/04 00:32:43;;;;;;;0.98;0.00;;;;;;;7.89;100.00;98565.00;1771035;80;21104;-51
2022/10/04 00:35:30;;;;;;;0.30;0.00;;;;;;;7.91;100.00;98572.95;1753760;79;21832;-51
2022/10/04 00:38:01;;;;;;;0.00;0.00;;;;;;;7.92;100.00;98567.48;1758261;78;21072;-51
2022/10/04 00:40:33;;;;;;;0.10;0.00;;;;;;;7.94;100.00;98570.95;1752836;79;21051;-51
2022/10/04 00:43:16;;;;;;;0.00;0.00;;;;;;;7.96;100.00;98562.84;1716470;80;21563;-51
2022/10/04 00:45:50;;;;;;;0.08;0.03;;;;;;;7.96;100.00;98563.70;1760424;79;21072;-51
2022/10/04 00:48:24;;;;;;;0.00;0.00;;;;;;;7.97;100.00;98569.92;1758887;79;21930;-52
2022/10/04 00:50:59;;;;;;;0.10;0.00;;;;;;;7.94;100.00;98576.31;1719984;80;21017;-51
2022/10/04 00:53:59;;;;;;;0.00;0.00;;;;;;;7.91;100.00;98571.11;1758833;79;21337;-51
2022/10/04 00:56:49;;;;;;;0.33;0.03;;;;;;;7.89;100.00;98574.38;1759718;79;21066;-51
2022/10/04 00:59:52;;;;;;;0.00;0.00;;;;;;;7.90;100.00;98581.95;1717645;79;21049;-51
2022/10/04 01:02:43;;;;;;;0.10;0.00;;;;;;;7.92;100.00;98574.19;1762995;79;21846;-51
2022/10/04 01:05:26;;;;;;;0.72;0.10;;;;;;;7.95;100.00;98579.38;1737629;79;20978;-51
2022/10/04 01:07:58;;;;;;;0.00;0.00;;;;;;;7.97;100.00;98576.63;1762093;79;21038;-51
2022/10/04 01:10:41;;;;;;;0.17;0.08;;;;;;;7.98;100.00;98576.55;1760574;79;20974;-51
2022/10/04 01:13:38;;;;;;;0.00;0.00;;;;;;;8.01;100.00;98578.64;1760073;79;21084;-51
2022/10/04 01:16:16;;;;;;;0.75;0.75;;;;;;;8.04;100.00;98579.81;1762416;79;21825;-51
2022/10/04 01:18:43;;;;;;;0.50;0.05;;;;;;;8.06;100.00;98576.11;1762308;79;21101;-52
2022/10/04 01:21:22;;;;;;;0.10;0.10;;;;;;;8.08;100.00;98572.84;1765227;79;20996;-51
2022/10/04 01:23:50;;;;;;;0.13;0.05;;;;;;;8.08;100.00;98576.86;1763644;79;20974;-52
2022/10/04 01:26:39;;;;;;;0.00;0.00;;;;;;;8.08;100.00;98583.56;1760555;79;21075;-51
2022/10/04 01:29:16;;;;;;;0.20;0.00;;;;;;;8.09;100.00;98587.11;1727812;80;21832;-51
2022/10/04 01:31:52;;;;;;;0.17;0.00;;;;;;;8.08;100.00;98575.52;1762172;79;21817;-51
2022/10/04 01:34:22;;;;;;;0.10;0.00;;;;;;;8.09;100.00;98576.39;1761562;79;21467;-50
2022/10/04 01:36:53;;;;;;;1.75;0.00;;;;;;;8.09;100.00;98575.05;1774745;79;20982;-51
2022/10/04 01:39:21;;;;;;;0.20;0.00;;;;;;;8.10;100.00;98583.00;1725992;80;21012;-51
2022/10/04 01:41:57;;;;;;;0.62;0.08;;;;;;;8.11;100.00;98579.38;1737097;79;23188;-50
2022/10/04 01:44:40;;;;;;;0.00;0.00;;;;;;;8.13;100.00;98584.19;1747621;80;21043;-51
2022/10/04 01:47:21;;;;;;;0.25;0.00;;;;;;;8.15;100.00;98584.97;1762031;79;21084;-51
2022/10/04 01:49:47;;;;;;;0.10;0.10;;;;;;;8.16;100.00;98588.52;1763228;79;21504;-50
2022/10/04 01:52:21;;;;;;;1.45;0.00;;;;;;;8.14;100.00;98589.94;1749399;80;21098;-50
2022/10/04 01:54:52;;;;;;;0.05;0.05;;;;;;;8.13;100.00;98585.52;1744026;80;24179;-50
2022/10/04 01:57:22;;;;;;;0.03;0.00;;;;;;;8.12;100.00;98590.49;1780054;78;21530;-50
2022/10/04 02:00:02;;;;;;;0.00;0.00;;;;;;;8.12;100.00;98598.53;1781598;78;21032;-51
2022/10/04 02:02:42;;;;;;;0.25;0.10;;;;;;;8.13;100.00;98597.59;1769640;79;21494;-50
2022/10/04 02:05:12;;;;;;;0.57;0.10;;;;;;;8.16;100.00;98597.90;1770612;79;21092;-50
2022/10/04 02:07:39;;;;;;;0.10;0.00;;;;;;;8.17;100.00;98607.64;1768436;79;21959;-50
2022/10/04 02:10:13;;;;;;;1.12;0.00;;;;;;;8.20;100.00;98605.66;1750852;80;21133;-50
2022/10/04 02:12:43;;;;;;;0.15;0.10;;;;;;;8.23;100.00;98610.86;1746174;80;21114;-51
2022/10/04 02:15:10;;;;;;;0.05;0.05;;;;;;;8.22;100.00;98609.13;1723748;80;21225;-51
2022/10/04 02:17:41;;;;;;;3.92;0.10;;;;;;;8.20;100.00;98613.70;1757718;79;21352;-50
2022/10/04 02:20:18;;;;;;;0.13;0.00;;;;;;;8.18;100.00;98612.92;1744655;80;21919;-50
2022/10/04 02:22:46;;;;;;;0.10;0.08;;;;;;;8.19;100.00;98609.30;1747327;80;21814;-50
2022/10/04 02:25:12;;;;;;;0.10;0.10;;;;;;;8.19;100.00;98613.31;1763020;79;21053;-50
2022/10/04 02:27:39;;;;;;;0.08;0.08;;;;;;;8.20;100.00;98611.50;1768735;78;21040;-51
2022/10/04 02:30:08;;;;;;;0.10;0.10;;;;;;;8.21;100.00;98619.45;1767841;78;21094;-50
2022/10/04 02:35:27;;;;;;;0.57;0.10;;;;;;;8.23;100.00;98626.08;1784750;78;22210;-50
2022/10/04 02:38:11;;;;;;;0.28;0.10;;;;;;;8.23;100.00;98622.92;1806648;78;21018;-48
2022/10/04 02:40:43;;;;;;;0.33;0.10;;;;;;;8.24;100.00;98628.68;1786298;78;21093;-49
2022/10/04 02:43:17;;;;;;;0.10;0.10;;;;;;;8.26;100.00;98629.91;1781857;78;21096;-47
2022/10/04 02:46:10;;;;;;;0.10;0.10;;;;;;;8.25;100.00;98634.40;1788139;78;22492;-48
2022/10/04 02:48:44;;;;;;;0.10;0.10;;;;;;;8.27;100.00;98637.00;1784469;79;21100;-49
2022/10/04 02:51:22;;;;;;;0.10;0.10;;;;;;;8.26;100.00;98639.29;1785738;78;21079;-48
2022/10/04 02:54:11;;;;;;;1.20;0.00;;;;;;;8.28;100.00;98638.73;1790694;78;21151;-48
2022/10/04 02:56:38;;;;;;;0.20;0.10;;;;;;;8.30;100.00;98638.18;1810312;78;21120;-48
2022/10/04 02:59:05;;;;;;;0.20;0.10;;;;;;;8.35;100.00;98641.02;1787308;78;21954;-51
2022/10/04 03:01:59;;;;;;;0.20;0.10;;;;;;;8.38;100.00;98643.14;1810227;78;21150;-48
2022/10/04 03:04:35;;;;;;;1.87;0.10;;;;;;;8.38;100.00;98653.39;1808577;78;21423;-48
2022/10/04 03:07:04;;;;;;;0.10;0.10;;;;;;;8.40;100.00;98653.31;1801717;78;21452;-50
2022/10/04 03:09:31;;;;;;;0.30;0.20;;;;;;;8.40;100.00;98661.35;1809295;78;21082;-47
2022/10/04 03:11:58;;;;;;;0.10;0.10;;;;;;;8.40;100.00;98666.72;1785109;78;21883;-49
2022/10/04 03:14:26;;;;;;;0.20;0.10;;;;;;;8.41;100.00;98687.22;1783702;78;21166;-49
2022/10/04 03:16:55;;;;;;;0.10;0.10;;;;;;;8.42;100.00;98691.64;1814278;77;21076;-51
2022/10/04 03:19:23;;;;;;;0.10;0.00;;;;;;;8.42;100.00;98688.45;1785027;78;21073;-49
2022/10/04 03:21:53;;;;;;;3.55;0.10;;;;;;;8.43;100.00;98689.31;1786594;79;21113;-47
2022/10/04 03:24:22;;;;;;;0.10;0.05;;;;;;;8.42;100.00;98687.11;1788403;78;21115;-51
2022/10/04 03:26:53;;;;;;;0.57;0.10;;;;;;;8.41;100.00;98688.56;1809794;78;21508;-47
2022/10/04 03:29:23;;;;;;;1.20;0.13;;;;;;;8.41;100.00;98687.22;1795025;78;21131;-49
2022/10/04 03:31:51;;;;;;;0.00;0.00;;;;;;;8.39;100.00;98685.96;1811117;78;21080;-47
2022/10/04 03:34:23;;;;;;;0.00;0.00;;;;;;;8.41;100.00;98697.47;1812124;78;21052;-47
2022/10/04 03:36:52;;;;;;;0.00;0.00;;;;;;;8.40;100.00;98699.77;1772803;79;21786;-48
2022/10/04 03:39:38;;;;;;;1.00;0.23;;;;;;;8.41;100.00;98708.67;1800604;78;21132;-48
2022/10/04 03:42:24;;;;;;;0.10;0.00;;;;;;;8.40;100.00;98704.25;1771280;78;21061;-47
2022/10/04 03:44:53;;;;;;;0.00;0.00;;;;;;;8.37;100.00;98715.14;1783504;79;21042;-47
2022/10/04 03:47:28;;;;;;;0.53;0.00;;;;;;;8.30;100.00;98712.78;1799928;78;21547;-47
2022/10/04 03:50:00;;;;;;;0.00;0.00;;;;;;;8.26;100.00;98709.86;1798210;78;22684;-48
2022/10/04 03:52:30;;;;;;;0.95;0.00;;;;;;;8.24;100.00;98710.92;1789115;78;21056;-47
2022/10/04 03:54:59;;;;;;;0.00;0.00;;;;;;;8.21;100.00;98713.28;1769588;78;22206;-47
2022/10/04 03:57:26;;;;;;;0.10;0.03;;;;;;;8.17;100.00;98718.41;1783115;78;21246;-47
2022/10/04 03:59:53;;;;;;;1.00;0.00;;;;;;;8.15;100.00;98719.46;1804901;78;21038;-48
2022/10/04 04:02:27;;;;;;;0.10;0.00;;;;;;;8.14;100.00;98717.26;1774847;80;21939;-48
2022/10/04 04:05:33;;;;;;;0.00;0.00;;;;;;;8.15;100.00;98727.03;1780587;78;21226;-48
2022/10/04 04:08:25;;;;;;;0.00;0.00;;;;;;;8.14;100.00;98721.28;1772813;79;20965;-47
2022/10/04 04:10:54;;;;;;;0.08;0.00;;;;;;;8.11;100.00;98723.25;1696550;82;21005;-47
2022/10/04 04:13:48;;;;;;;0.00;0.00;;;;;;;8.07;100.00;98723.04;1778162;79;21013;-49
2022/10/04 04:16:14;;;;;;;1.37;0.00;;;;;;;8.04;100.00;98732.09;1776835;79;22585;-47
2022/10/04 04:18:42;;;;;;;0.33;0.00;;;;;;;8.03;100.00;98733.52;1773820;78;21490;-47
2022/10/04 04:21:10;;;;;;;0.00;0.00;;;;;;;8.01;100.00;98736.75;1776013;78;21014;-47
2022/10/04 04:23:50;;;;;;;0.00;0.00;;;;;;;7.99;100.00;98738.20;1782776;78;21406;-47
2022/10/04 04:26:38;;;;;;;0.13;0.00;;;;;;;7.99;100.00;98748.91;1776931;78;21085;-47
2022/10/04 04:29:19;;;;;;;0.00;0.00;;;;;;;8.00;100.00;98750.61;1779060;79;22572;-46
2022/10/04 04:31:55;;;;;;;0.00;0.00;;;;;;;8.04;100.00;98752.20;1775206;79;21503;-47
2022/10/04 04:34:31;;;;;;;0.00;0.00;;;;;;;8.06;100.00;98756.14;1751695;79;21115;-49
2022/10/04 04:37:00;;;;;;;0.10;0.00;;;;;;;8.06;100.00;98755.67;1774120;79;21044;-46
2022/10/04 04:39:38;;;;;;;0.10;0.00;;;;;;;8.04;100.00;98754.88;1773232;79;21138;-48
2022/10/04 04:42:22;;;;;;;0.00;0.00;;;;;;;8.05;100.00;98763.31;1774306;79;21786;-48
2022/10/04 04:44:54;;;;;;;0.15;0.00;;;;;;;8.05;100.00;98761.11;1771319;79;21345;-49
2022/10/04 04:47:45;;;;;;;0.00;0.00;;;;;;;8.04;100.00;98760.23;1774145;78;21042;-46
2022/10/04 04:50:27;;;;;;;0.00;0.00;;;;;;;8.04;100.00;98766.07;1796344;78;21522;-45
2022/10/04 04:53:25;;;;;;;0.28;0.00;;;;;;;8.05;100.00;98768.67;1778930;79;21086;-47
2022/10/04 04:56:01;;;;;;;0.85;0.00;;;;;;;8.07;100.00;98773.48;1761237;79;21464;-48
2022/10/04 04:58:35;;;;;;;0.00;0.00;;;;;;;8.07;100.00;98772.62;1775001;78;21498;-49
2022/10/04 05:01:10;;;;;;;2.85;0.10;;;;;;;8.09;100.00;98779.61;1764964;79;21077;-46
2022/10/04 05:03:36;;;;;;;0.10;0.10;;;;;;;8.09;100.00;98783.63;1798245;77;21303;-48
2022/10/04 05:06:03;;;;;;;0.15;0.10;;;;;;;8.11;100.00;98788.91;1802821;78;21084;-48
2022/10/04 05:08:32;;;;;;;0.00;0.00;;;;;;;8.12;100.00;98798.22;1762855;79;21714;-47
2022/10/04 05:11:15;;;;;;;0.40;0.00;;;;;;;8.14;100.00;98796.80;1758193;79;21041;-47
2022/10/04 05:14:05;;;;;;;2.27;0.08;;;;;;;8.15;100.00;98798.54;1762651;79;21495;-48
2022/10/04 05:16:46;;;;;;;0.00;0.00;;;;;;;8.16;100.00;98801.61;1771374;79;21006;-45
2022/10/04 05:19:19;;;;;;;0.10;0.00;;;;;;;8.17;100.00;98810.89;1731993;79;21064;-46
2022/10/04 05:21:47;;;;;;;0.30;0.00;;;;;;;8.19;100.00;98805.45;1773403;79;21891;-50
2022/10/04 05:24:21;;;;;;;0.00;0.00;;;;;;;8.20;100.00;98811.20;1753864;79;22010;-49
2022/10/04 05:26:54;;;;;;;0.10;0.10;;;;;;;8.20;100.00;98816.56;1766011;80;21089;-49
2022/10/04 05:29:24;;;;;;;0.10;0.10;;;;;;;8.22;100.00;98822.72;1775284;79;21103;-50
2022/10/04 05:32:07;;;;;;;0.10;0.00;;;;;;;8.25;100.00;98822.06;1774562;79;21090;-49
2022/10/04 05:34:40;;;;;;;0.00;0.00;;;;;;;8.26;100.00;98825.61;1771285;79;21061;-50
2022/10/04 05:37:24;;;;;;;2.60;0.00;;;;;;;8.27;100.00;98832.24;1747896;78;21104;-49
2022/10/04 05:40:34;;;;;;;0.78;0.10;;;;;;;8.30;100.00;98836.11;1760273;79;21063;-49
2022/10/04 05:43:01;;;;;;;1.55;0.00;;;;;;;8.37;100.00;98839.83;1716306;81;21121;-49
2022/10/04 05:45:29;;;;;;;0.08;0.00;;;;;;;8.39;100.00;98844.64;1716180;81;21081;-49
2022/10/04 05:48:00;;;;;;;0.08;0.00;;;;;;;8.44;100.00;98851.95;1727235;79;21936;-49
2022/10/04 05:50:39;;;;;;;0.10;0.00;;;;;;;8.47;100.00;98854.48;1760307;79;21533;-49
2022/10/04 05:53:24;;;;;;;0.42;0.10;;;;;;;8.52;100.00;98851.06;1757969;79;21048;-49
2022/10/04 05:56:03;;;;;;;0.37;0.00;;;;;;;8.56;100.00;98857.53;1762734;79;21743;-50
2022/10/04 05:58:47;;;;;;;2.05;0.10;;;;;;;8.59;100.00;98857.86;1760680;79;20990;-49
2022/10/04 06:01:58;;;;;;;0.40;0.10;;;;;;;8.65;100.00;98857.04;1765529;79;22462;-50
2022/10/04 06:04:51;;;;;;;0.10;0.10;;;;;;;8.72;100.00;98858.91;1758974;79;22114;-51
2022/10/04 06:07:57;;;;;;;0.30;0.10;;;;;;;8.79;100.00;98864.32;1763563;79;21107;-50
2022/10/04 06:10:58;;;;;;;0.10;0.00;;;;;;;8.85;100.00;98869.81;1762564;79;21053;-49
2022/10/04 06:13:45;;;;;;;0.40;0.10;;;;;;;8.90;100.00;98878.50;1763173;79;21413;-50
2022/10/04 06:19:50;;;;;;;0.10;0.10;;;;;;;8.97;100.00;98879.41;1756514;78;22561;-52
2022/10/04 06:22:19;;;;;;;1.75;0.10;;;;;;;9.00;100.00;98885.97;1675894;81;21111;-49
2022/10/04 06:24:53;;;;;;;0.10;0.10;;;;;;;9.05;100.00;98895.95;1733080;80;22509;-50
2022/10/04 06:27:31;;;;;;;0.10;0.10;;;;;;;9.08;100.00;98897.61;1739101;80;21069;-49
2022/10/04 06:30:06;;;;;;;0.17;0.10;;;;;;;9.10;100.00;98899.23;1733334;80;21056;-51
2022/10/04 06:33:09;;;;;;;0.50;0.10;;;;;;;9.16;100.00;98899.87;1726835;80;21172;-50
2022/10/04 06:36:11;;;;;;;0.72;0.10;;;;;;;9.17;100.00;98907.84;1732582;80;21118;-49
2022/10/04 06:39:17;;;;;;;0.10;0.10;;;;;;;9.18;100.00;98904.69;1730862;80;22525;-51
2022/10/04 06:42:16;;;;;;;;;;;;;;;9.22;100.00;98911.59;1732410;80;21065;-50
2022/10/04 06:45:16;;;;;;;0.10;0.10;;;;;;;9.26;100.00;98926.13;1729153;80;20178;-50
2022/10/04 06:48:17;;;;;;;0.90;0.20;;;;;;;9.31;100.00;98927.20;1733114;80;21478;-50
2022/10/04 06:51:16;;;;;;;0.10;0.10;;;;;;;9.36;100.00;98938.06;1734328;80;21057;-49
2022/10/04 06:54:30;;;;;;;0.50;0.20;;;;;;;9.42;100.00;98935.05;1732143;80;21864;-50
2022/10/04 06:57:35;;;;;;;5.47;0.20;;;;;;;9.47;100.00;98933.44;1736911;79;21320;-51
2022/10/04 07:00:16;;;;;;;0.20;0.17;;;;;;;9.53;100.00;98945.17;1740426;79;20970;-50
2022/10/04 07:02:51;;;;;;;0.72;0.10;;;;;;;9.54;100.00;98939.31;1740952;79;21402;-51
2022/10/04 07:05:41;;;;;;;1.17;0.20;;;;;;;9.56;100.00;98938.77;1737193;79;22078;-49
2022/10/04 07:08:41;;;;;;;0.20;0.10;;;;;;;9.56;100.00;98955.75;1731174;79;21790;-50
2022/10/04 07:11:23;;;;;;;1.15;0.13;;;;;;;9.58;100.00;98951.64;1738343;79;20976;-50
2022/10/04 07:14:06;;;;;;;0.78;0.20;;;;;;;9.65;100.00;98947.64;1744886;79;21018;-49
2022/10/04 07:16:49;;;;;;;0.45;0.20;;;;;;;9.72;100.00;98956.61;1740413;79;21072;-49
2022/10/04 07:19:40;;;;;;;1.82;0.17;;;;;;;9.81;100.00;98961.45;1731273;80;21380;-50
2022/10/04 07:22:15;;;;;;;0.65;0.10;;;;;;;9.90;100.00;98964.09;1727462;80;21883;-49
2022/10/04 07:24:55;;;;;;;0.20;0.10;;;;;;;9.98;100.00;98965.86;1723578;80;21449;-51
2022/10/04 07:29:19;;;;;;;0.30;0.20;;;;;;;9.98;100.00;98974.39;1724788;80;21050;-50
2022/10/04 07:30:22;;;;;;;0.20;0.20;;;;;;;10.04;100.00;98975.38;1706124;80;21542;-50
2022/10/04 07:32:50;;;;;;;0.30;0.20;;;;;;;10.00;100.00;98978.73;1724292;80;21061;-50
2022/10/04 07:35:46;;;;;;;1.00;0.20;;;;;;;9.95;100.00;98984.00;1725728;80;21680;-49
2022/10/04 07:38:18;;;;;;;0.25;0.10;;;;;;;9.90;100.00;98984.73;1723679;80;21124;-48
2022/10/04 07:41:25;;;;;;;0.23;0.20;;;;;;;9.83;100.00;98982.88;1722110;80;21438;-47
2022/10/04 07:44:05;;;;;;;0.33;0.10;;;;;;;9.78;100.00;98998.41;1724467;80;21115;-48
2022/10/04 07:46:42;;;;;;;0.30;0.17;;;;;;;9.77;100.00;99002.92;1721924;80;21084;-48
2022/10/04 07:49:19;;;;;;;1.35;0.30;;;;;;;9.74;100.00;99004.42;1724866;80;21923;-50
2022/10/04 07:52:17;;;;;;;0.42;0.20;;;;;;;9.71;100.00;99013.13;1723151;80;21096;-48
2022/10/04 07:55:09;;;;;;;1.62;0.30;;;;;;;9.67;100.00;99015.61;1718005;80;21035;-48
2022/10/04 07:58:06;;;;;;;0.45;0.28;;;;;;;9.63;100.00;99013.56;1722806;80;21199;-50
2022/10/04 08:00:51;;;;;;;0.65;0.20;;;;;;;9.62;100.00;99019.88;1725386;80;21050;-50
2022/10/04 08:03:48;;;;;;;0.40;0.20;;;;;;;9.63;100.00;99018.93;1710953;80;21430;-51
2022/10/04 08:06:36;;;;;;;0.28;0.20;;;;;;;9.63;100.00;99028.34;1723123;80;21073;-49
2022/10/04 08:09:29;;;;;;;0.20;0.20;;;;;;;9.62;100.00;99030.63;1722783;80;21535;-50
2022/10/04 08:12:02;;;;;;;0.55;0.20;;;;;;;9.60;100.00;99031.22;1723699;80;21148;-50
2022/10/04 08:14:56;;;;;;;1.72;0.30;;;;;;;9.57;100.00;99030.50;1727309;80;21096;-49
2022/10/04 08:18:01;;;;;;;0.60;0.40;;;;;;;9.53;100.00;99028.45;1710560;80;21568;-48
2022/10/04 08:20:51;;;;;;;1.35;0.50;;;;;;;9.53;100.00;99032.98;1722236;80;21073;-48
2022/10/04 08:23:46;;;;;;;1.10;0.50;;;;;;;9.52;100.00;99030.77;1723677;80;21053;-50
2022/10/04 08:26:57;;;;;;;1.75;0.70;;;;;;;9.53;100.00;99040.54;1720537;80;21779;-48
2022/10/04 08:29:42;;;;;;;0.60;0.50;;;;;;;9.57;100.00;99042.59;1717847;80;21053;-50
2022/10/04 08:32:38;;;;;;;0.50;0.40;;;;;;;9.62;100.00;99047.22;1721517;80;21631;-50
2022/10/04 08:35:33;;;;;;;0.50;0.37;;;;;;;9.64;100.00;99056.95;1719327;80;21046;-48
2022/10/04 08:38:24;;;;;;;1.35;0.30;;;;;;;9.69;100.00;99050.86;1722481;80;21064;-49
2022/10/04 08:41:45;;;;;;;0.40;0.30;;;;;;;9.73;100.00;99054.22;1718062;80;21095;-50
2022/10/04 08:45:00;;;;;;;0.30;0.30;;;;;;;9.74;100.00;99058.17;1718950;80;21037;-48
2022/10/04 08:47:38;;;;;;;0.98;0.20;;;;;;;9.77;100.00;99058.49;1724430;80;21927;-47
2022/10/04 08:50:43;;;;;;;0.30;0.20;;;;;;;9.80;100.00;99067.70;1677452;80;21792;-49
2022/10/04 08:53:49;;;;;;;0.37;0.20;;;;;;;9.83;100.00;99064.86;1722037;80;21010;-48
2022/10/04 08:56:33;;;;;;;0.62;0.25;;;;;;;9.86;100.00;99068.25;1724953;80;21069;-47
2022/10/04 08:59:40;;;;;;;2.02;0.72;;;;;;;9.90;100.00;99073.44;1722905;80;21329;-50
2022/10/04 09:02:47;;;;;;;1.25;0.30;;;;;;;9.90;100.00;99082.84;1718184;80;21644;-50
2022/10/04 09:06:11;;;;;;;0.45;0.28;;;;;;;9.87;100.00;99079.37;1724834;80;22385;-49
2022/10/04 09:09:17;;;;;;;1.30;0.30;;;;;;;9.84;100.00;99082.25;1721340;80;21112;-49
2022/10/04 09:12:20;;;;;;;0.37;0.20;;;;;;;9.82;100.00;99088.18;1722929;80;21109;-49
2022/10/04 09:15:04;;;;;;;0.95;0.40;;;;;;;9.83;100.00;99091.27;1725671;80;21068;-50
2022/10/04 09:17:54;;;;;;;0.93;0.30;;;;;;;9.86;100.00;99090.23;1717119;80;21626;-48
2022/10/04 09:20:32;;;;;;;0.30;0.20;;;;;;;9.87;100.00;99091.47;1654228;84;21088;-49
2022/10/04 09:23:21;;;;;;;0.30;0.23;;;;;;;9.90;100.00;99094.94;1720513;80;21091;-50
2022/10/04 09:26:05;;;;;;;0.35;0.30;;;;;;;9.92;100.00;99104.67;1720847;80;21161;-50
2022/10/04 09:29:03;;;;;;;1.07;0.40;;;;;;;9.90;100.00;99111.07;1700865;80;21037;-51
2022/10/04 09:31:48;;;;;;;0.60;0.40;;;;;;;9.91;100.00;99116.84;1723053;80;23467;-48
2022/10/04 09:34:37;;;;;;;0.30;0.30;;;;;;;9.90;100.00;99124.52;1728635;80;21492;-49
2022/10/04 09:37:24;;;;;;;0.35;0.30;;;;;;;9.87;100.00;99125.54;1721029;80;21065;-49
2022/10/04 09:40:33;;;;;;;0.53;0.30;;;;;;;9.83;100.00;99131.58;1692946;80;21695;-51
2022/10/04 09:43:31;;;;;;;0.42;0.40;;;;;;;9.85;100.00;99132.84;1720449;80;21638;-50
2022/10/04 09:46:43;;;;;;;2.15;0.30;;;;;;;9.87;100.00;99134.47;1727149;80;21927;-48
2022/10/04 09:49:49;;;;;;;0.35;0.30;;;;;;;9.88;100.00;99142.06;1722924;80;20979;-49
2022/10/04 09:52:48;;;;;;;7.35;0.42;;;;;;;9.92;100.00;99141.44;1726211;80;21096;-51
2022/10/04 09:55:34;;;;;;;1.15;0.30;;;;;;;9.98;100.00;99148.67;1718465;80;21100;-51
2022/10/04 09:58:45;;;;;;;2.05;0.53;;;;;;;10.03;100.00;99149.31;1722971;80;21116;-48
2022/10/04 10:01:35;;;;;;;0.85;0.30;;;;;;;10.05;100.00;99143.34;1722744;80;21264;-49
2022/10/04 10:04:30;;;;;;;0.50;0.30;;;;;;;10.09;100.00;99154.81;1727072;80;21225;-50
2022/10/04 10:07:35;;;;;;;0.60;0.30;;;;;;;10.13;100.00;99153.67;1722086;80;20998;-50
2022/10/04 10:13:43;;;;;;;0.62;0.30;;;;;;;10.16;100.00;99166.95;1725383;80;20994;-48
2022/10/04 10:16:38;;;;;;;2.05;0.20;;;;;;;10.11;100.00;99171.27;1725028;80;21270;-49
2022/10/04 10:19:55;;;;;;;0.30;0.30;;;;;;;10.12;100.00;99166.75;1725779;80;21076;-50
2022/10/04 10:22:30;;;;;;;0.53;0.33;;;;;;;10.12;100.00;99170.28;1723860;80;21068;-48
2022/10/04 10:25:07;;;;;;;2.22;0.35;;;;;;;10.09;100.00;99174.50;1725562;80;21069;-49
2022/10/04 10:28:10;;;;;;;0.40;0.30;;;;;;;10.13;100.00;99184.59;1724623;80;21105;-50
2022/10/04 10:31:12;;;;;;;0.50;0.30;;;;;;;10.14;100.00;99182.30;1721883;80;21840;-47
2022/10/04 10:34:15;;;;;;;0.50;0.25;;;;;;;10.17;100.00;99190.21;1723977;80;21584;-49
2022/10/04 10:36:57;;;;;;;1.57;0.30;;;;;;;10.15;100.00;99188.08;1728271;80;21090;-50
2022/10/04 10:39:55;;;;;;;1.00;0.40;;;;;;;10.13;100.00;99188.62;1730519;80;21050;-47
2022/10/04 10:42:47;;;;;;;1.35;0.30;;;;;;;10.11;100.00;99189.22;1727907;80;21512;-48
2022/10/04 10:46:04;;;;;;;1.65;0.40;;;;;;;10.13;100.00;99195.35;1723366;80;21963;-48
2022/10/04 10:48:58;;;;;;;1.67;0.40;;;;;;;10.17;100.00;99192.46;1725038;80;21045;-49
2022/10/04 10:51:57;;;;;;;0.50;0.30;;;;;;;10.28;100.00;99193.69;1725087;80;21170;-48
2022/10/04 10:55:08;;;;;;;0.75;0.33;;;;;;;10.37;100.00;99186.45;1726328;80;21073;-50
2022/10/04 10:58:03;;;;;;;1.92;0.40;;;;;;;10.47;100.00;99189.86;1721250;80;21650;-49
2022/10/04 11:01:02;;;;;;;0.50;0.40;;;;;;;10.57;100.00;99186.17;1722591;80;21868;-49
2022/10/04 11:03:56;;;;;;;1.30;0.40;;;;;;;10.63;100.00;99186.68;1695469;80;21416;-48
2022/10/04 11:07:01;;;;;;;1.42;0.30;;;;;;;10.70;100.00;99194.43;1724645;80;21513;-48
2022/10/04 11:10:09;;;;;;;0.70;0.30;;;;;;;10.71;100.00;99189.44;1731906;80;21026;-47
2022/10/04 11:13:16;;;;;;;1.00;0.30;;;;;;;10.71;100.00;99192.13;1687538;80;21049;-48
2022/10/04 11:16:12;;;;;;;0.30;0.30;;;;;;;10.72;100.00;99201.44;1725778;80;21881;-48
2022/10/04 11:19:09;;;;;;;0.50;0.30;;;;;;;10.76;100.00;99195.41;1724657;80;21065;-49
2022/10/04 11:22:12;;;;;;;0.90;0.35;;;;;;;10.80;100.00;99198.33;1723025;80;21058;-49
2022/10/04 11:25:33;;;;;;;1.25;0.40;;;;;;;10.84;100.00;99201.22;1723314;80;21488;-49
2022/10/04 11:28:23;;;;;;;4.30;0.40;;;;;;;10.84;100.00;99202.09;1731081;80;21069;-50
2022/10/04 11:31:04;;;;;;;0.40;0.40;;;;;;;10.79;100.00;99203.32;1723219;80;21776;-47
2022/10/04 11:34:10;;;;;;;0.80;0.30;;;;;;;10.77;100.00;99211.95;1723442;80;21061;-50
2022/10/04 11:36:55;;;;;;;0.37;0.30;;;;;;;10.75;100.00;99209.83;1722201;80;21480;-48
2022/10/04 11:39:58;;;;;;;0.30;0.30;;;;;;;10.73;100.00;99215.77;1725098;80;21124;-47
2022/10/04 11:43:04;;;;;;;1.17;0.40;;;;;;;10.73;100.00;99209.03;1725343;80;21053;-48
2022/10/04 11:46:11;;;;;;;0.40;0.30;;;;;;;10.70;100.00;99214.61;1725651;80;21134;-49
2022/10/04 11:48:59;;;;;;;0.82;0.30;;;;;;;10.70;100.00;99215.96;1660006;84;21153;-48
2022/10/04 11:51:46;;;;;;;0.65;0.30;;;;;;;10.71;100.00;99219.05;1679473;80;21069;-48
2022/10/04 11:54:51;;;;;;;0.50;0.30;;;;;;;10.73;100.00;99217.11;1722911;80;21222;-51
2022/10/04 11:57:32;;;;;;;0.30;0.30;;;;;;;10.81;100.00;99217.53;1731196;80;21045;-49
2022/10/04 12:00:20;;;;;;;0.35;0.30;;;;;;;10.83;100.00;99225.05;1724028;80;22536;-47
2022/10/04 12:03:19;;;;;;;0.53;0.40;;;;;;;10.83;100.00;99223.71;1724609;80;21133;-48
2022/10/04 12:06:26;;;;;;;0.50;0.30;;;;;;;10.83;100.00;99223.71;1728579;80;21053;-51
2022/10/04 12:09:19;;;;;;;3.02;0.33;;;;;;;10.87;100.00;99232.02;1729870;80;21085;-50
2022/10/04 12:12:37;;;;;;;0.40;0.30;;;;;;;10.86;100.00;99224.41;1726113;80;21065;-48
2022/10/04 12:15:44;;;;;;;0.78;0.30;;;;;;;10.86;100.00;99223.55;1732470;80;21944;-47
2022/10/04 12:18:46;;;;;;;4.03;0.30;;;;;;;10.95;100.00;99245.91;1729817;80;21061;-48
2022/10/04 12:21:27;;;;;;;1.37;0.28;;;;;;;10.97;100.00;99233.23;1729320;80;21384;-48
2022/10/04 12:24:31;;;;;;;0.30;0.30;;;;;;;10.97;100.00;99233.23;1673217;80;21403;-49
2022/10/04 12:27:23;;;;;;;2.12;0.33;;;;;;;11.00;100.00;99238.41;1724826;80;21085;-50
2022/10/04 12:30:21;;;;;;;0.40;0.30;;;;;;;11.07;100.00;99238.92;1723537;80;21717;-48
2022/10/04 12:33:18;;;;;;;0.70;0.30;;;;;;;11.08;100.00;99244.22;1725901;80;21068;-50
2022/10/04 12:36:21;;;;;;;2.42;0.72;;;;;;;11.08;100.00;99244.22;1733411;80;21435;-48
2022/10/04 12:39:23;;;;;;;1.07;0.30;;;;;;;11.12;100.00;99228.77;1727190;80;20990;-51
2022/10/04 12:42:23;;;;;;;0.30;0.30;;;;;;;11.14;100.00;99233.11;1729341;80;21092;-49
2022/10/04 12:45:20;;;;;;;0.45;0.30;;;;;;;11.20;100.00;99252.95;1728641;80;21391;-48
2022/10/04 12:48:04;;;;;;;3.90;0.40;;;;;;;11.21;100.00;99249.30;1655525;80;21072;-49
2022/10/04 12:50:44;;;;;;;0.30;0.20;;;;;;;11.20;100.00;99247.55;1727333;80;20966;-48
2022/10/04 12:53:45;;;;;;;0.40;0.30;;;;;;;11.20;100.00;99248.91;1727103;80;21307;-47
2022/10/04 12:56:49;;;;;;;1.32;0.30;;;;;;;11.21;100.00;99253.81;1726600;80;21033;-48
2022/10/04 12:59:47;;;;;;;0.50;0.33;;;;;;;11.25;100.00;99247.27;1732692;80;21638;-51
2022/10/04 13:02:25;;;;;;;4.05;1.15;;;;;;;11.25;100.00;99247.27;1733845;80;20982;-47
2022/10/04 13:05:21;;;;;;;0.40;0.35;;;;;;;11.27;100.00;99258.36;1738277;80;21046;-49
2022/10/04 13:08:03;;;;;;;;;;;;;;;11.27;100.00;99253.45;1695238;80;21022;-50